Hlavní strana
METAR-TAF:

METAR-TAF

Letiště :

Mosjøen, Norsko

zeměpisná šířka: 65-48N, zeměpisná délka: 013-08E, výška: 70 m

Aktuální stav počasí

Zpráva byla vytvořena před 25 minutami, v 12:20 UTC
Jihojihovýchodní vítr 6 kt, proměnlivý mezi východojihovýchodním a západojihozápadním
Teplota 18°C
Vlhkost vzduchu 32%
Tlak 1020 hPa
Viditelnost 10 km a více
Žádná oblačnost pod 1500 m, nevyskytují se cumulonimby.

METAR: ENMS 231220Z 16006KT 120V240 CAVOK 18/01 Q1020 RMK WIND 412FT VRB05KT

Čas: 14:45 (12:45 UTC)


TAF: chybějící

Stav a předpovědi počasí z více než 4 000 letišť (zprávy METAR a TAF).

Červené a žluté tečky na mapě představují dostupné meteorologické stanice.

Když kurzor umístíte na tečku, zobrazí se název stanice.

Pak kliknutím zobrazíte stav a předpověď počasí.

Chcete-li změnit mapu, kliknutím na zelené tlačítko se znaménkem +mapu přiblížíte, kliknutím na zelené tlačítko se znaménkem – mapu oddálíte a kliknutím na zelené šipky přejdete na sousední mapy.


METAR-TAF: